Time;durP1;ratioP1;P1;durP2;ratioP2;P2;SDS_P1;SDS_P2;PMS_P1;PMS_P2;Temp;Humidity;BMP_temperature;BMP_pressure;BME280_temperature;BME280_humidity;BME280_pressure;Samples;Min_cycle;Max_cycle;Signal;HPM_P1;HPM_P2
2021/06/28 00:01:24;;;;;;;11.55;10.55;;;;;;;19.25;100.00;99099.41;5101846;28;20529;-73
2021/06/28 00:03:53;;;;;;;10.87;9.87;;;;;;;19.30;100.00;99102.53;5103015;28;20223;-73
2021/06/28 00:06:21;;;;;;;13.55;10.77;;;;;;;19.35;100.00;99106.47;5108959;28;20819;-73
2021/06/28 00:08:48;;;;;;;11.17;10.20;;;;;;;19.42;100.00;99106.72;5101190;28;20222;-74
2021/06/28 00:11:15;;;;;;;10.80;9.80;;;;;;;19.38;100.00;99114.38;5105709;28;20425;-73
2021/06/28 00:13:44;;;;;;;10.43;9.53;;;;;;;19.39;100.00;99109.75;5104947;28;20200;-73
2021/06/28 00:16:11;;;;;;;12.07;10.98;;;;;;;19.27;100.00;99108.31;5093768;28;20529;-73
2021/06/28 00:18:38;;;;;;;12.23;11.02;;;;;;;19.12;100.00;99106.09;5108541;28;20186;-75
2021/06/28 00:21:06;;;;;;;16.05;14.13;;;;;;;19.16;100.00;99117.59;5096174;28;20192;-73
2021/06/28 00:23:34;;;;;;;29.13;22.52;;;;;;;19.27;100.00;99109.16;5113421;28;20285;-72
2021/06/28 00:26:03;;;;;;;12.23;11.00;;;;;;;19.52;100.00;99126.59;5112083;28;20219;-73
2021/06/28 00:28:30;;;;;;;12.20;10.93;;;;;;;19.65;100.00;99125.31;5100650;28;20472;-72
2021/06/28 00:30:57;;;;;;;19.70;16.60;;;;;;;19.62;100.00;99121.03;5093752;28;20638;-72
2021/06/28 00:33:23;;;;;;;19.60;17.50;;;;;;;19.74;100.00;99130.75;5113100;28;20278;-73
2021/06/28 00:35:50;;;;;;;16.57;15.07;;;;;;;19.58;100.00;99127.81;5096740;28;20491;-72
2021/06/28 00:38:17;;;;;;;9.50;8.60;;;;;;;19.67;100.00;99124.19;5103344;28;20436;-72
2021/06/28 00:40:47;;;;;;;12.23;8.63;;;;;;;19.69;100.00;99135.81;5105588;28;20516;-73
2021/06/28 00:43:13;;;;;;;9.23;8.33;;;;;;;19.52;100.00;99129.34;5093172;28;20436;-73
2021/06/28 00:45:42;;;;;;;10.80;9.90;;;;;;;19.45;100.00;99124.66;5098654;28;20469;-73
2021/06/28 00:48:11;;;;;;;10.38;9.38;;;;;;;19.47;100.00;99117.16;5102712;28;20466;-73
2021/06/28 00:50:41;;;;;;;10.50;9.40;;;;;;;19.42;100.00;99120.34;5092794;28;20188;-74
2021/06/28 00:53:10;;;;;;;10.30;9.10;;;;;;;19.47;100.00;99126.22;5108343;28;20797;-74
2021/06/28 00:55:38;;;;;;;9.60;8.70;;;;;;;19.47;100.00;99134.41;5100508;28;20927;-73
2021/06/28 00:58:06;;;;;;;10.33;9.33;;;;;;;19.55;100.00;99133.63;5092708;28;20426;-73
2021/06/28 01:00:33;;;;;;;13.73;9.30;;;;;;;19.56;100.00;99136.19;5097082;28;20440;-74
2021/06/28 01:03:00;;;;;;;9.88;8.88;;;;;;;19.77;99.46;99137.75;5113103;28;20436;-74
2021/06/28 01:05:31;;;;;;;10.18;9.27;;;;;;;19.54;99.52;99134.66;5095120;28;20230;-74
2021/06/28 01:07:57;;;;;;;9.88;8.88;;;;;;;19.30;100.00;99132.53;5111733;28;20203;-73
2021/06/28 01:10:24;;;;;;;12.30;9.60;;;;;;;19.26;100.00;99129.25;5112589;28;20283;-73
2021/06/28 01:12:52;;;;;;;12.00;9.65;;;;;;;19.16;100.00;99125.75;5098144;28;20689;-74
2021/06/28 01:15:21;;;;;;;10.45;9.45;;;;;;;19.10;100.00;99123.66;5109571;28;20226;-74
2021/06/28 01:17:49;;;;;;;10.80;9.75;;;;;;;19.09;100.00;99116.50;5098594;28;20190;-73
2021/06/28 01:20:17;;;;;;;10.13;9.13;;;;;;;19.14;100.00;99120.47;5092940;28;20278;-74
2021/06/28 01:22:45;;;;;;;10.45;9.48;;;;;;;19.24;100.00;99128.56;5099102;28;20472;-74
2021/06/28 01:25:16;;;;;;;11.47;9.50;;;;;;;19.31;100.00;99121.47;5092262;28;20634;-72
2021/06/28 01:27:43;;;;;;;11.40;9.03;;;;;;;19.36;100.00;99126.47;5101634;28;20459;-73
2021/06/28 01:30:13;;;;;;;9.65;8.65;;;;;;;19.14;100.00;99117.72;5110595;27;20875;-72
2021/06/28 01:32:42;;;;;;;10.60;9.55;;;;;;;19.08;100.00;99107.44;5091647;28;20656;-73
2021/06/28 01:35:10;;;;;;;11.15;10.15;;;;;;;19.10;100.00;99112.72;5105958;28;20202;-73
2021/06/28 01:37:36;;;;;;;10.60;9.02;;;;;;;18.95;100.00;99106.97;5102021;27;20686;-73
2021/06/28 01:40:07;;;;;;;11.13;10.07;;;;;;;18.86;100.00;99097.84;5103764;27;20184;-73
2021/06/28 01:42:36;;;;;;;11.55;10.48;;;;;;;18.80;100.00;99097.59;5100532;28;20209;-73
2021/06/28 01:45:04;;;;;;;12.45;10.68;;;;;;;18.99;100.00;99099.31;5105373;28;20186;-73
2021/06/28 01:47:31;;;;;;;12.00;10.40;;;;;;;19.10;100.00;99101.81;5101585;27;20254;-74
2021/06/28 01:49:57;;;;;;;11.25;10.13;;;;;;;19.25;100.00;99094.81;5104786;27;20283;-74
2021/06/28 01:52:24;;;;;;;10.93;9.57;;;;;;;19.43;100.00;99091.22;5106374;28;20645;-73
2021/06/28 01:54:50;;;;;;;11.00;9.70;;;;;;;19.49;100.00;99088.72;5103332;28;20460;-73
2021/06/28 01:57:17;;;;;;;10.10;9.20;;;;;;;19.47;100.00;99095.31;5102600;27;20204;-73
2021/06/28 01:59:45;;;;;;;11.20;10.00;;;;;;;19.45;100.00;99090.03;5118686;28;20977;-73
2021/06/28 02:02:11;;;;;;;10.83;9.87;;;;;;;19.40;100.00;99095.09;5109993;27;20451;-73
2021/06/28 02:04:38;;;;;;;11.13;10.07;;;;;;;19.47;100.00;99087.13;5118426;27;20490;-74
2021/06/28 02:07:07;;;;;;;10.43;9.50;;;;;;;19.49;100.00;99090.56;5118276;27;20447;-73
2021/06/28 02:09:34;;;;;;;10.90;9.80;;;;;;;19.58;100.00;99101.41;5109122;27;20828;-73
2021/06/28 02:12:01;;;;;;;10.23;9.33;;;;;;;19.37;100.00;99099.00;5098334;28;20462;-73
2021/06/28 02:14:29;;;;;;;11.38;10.30;;;;;;;19.33;100.00;99094.00;5115764;28;20585;-74
2021/06/28 02:16:57;;;;;;;11.10;10.00;;;;;;;19.26;100.00;99099.25;5117837;27;20214;-74
2021/06/28 02:19:25;;;;;;;11.00;10.00;;;;;;;19.30;100.00;99097.91;5101566;27;20477;-73
2021/06/28 02:21:52;;;;;;;11.37;10.17;;;;;;;19.46;100.00;99096.34;5102267;28;20194;-72
2021/06/28 02:24:18;;;;;;;13.17;10.40;;;;;;;19.67;100.00;99102.31;5110638;27;20517;-74
2021/06/28 02:26:46;;;;;;;10.90;9.90;;;;;;;19.56;100.00;99095.25;5098959;28;20538;-73
2021/06/28 02:29:13;;;;;;;12.90;10.60;;;;;;;19.40;100.00;99086.03;5098975;28;20242;-74
2021/06/28 02:31:41;;;;;;;10.23;9.20;;;;;;;19.37;100.00;99088.06;5116408;28;20940;-73
2021/06/28 02:34:09;;;;;;;11.15;10.00;;;;;;;19.45;100.00;99084.56;5104584;27;20465;-74
2021/06/28 02:36:36;;;;;;;10.77;9.77;;;;;;;19.56;100.00;99083.47;5106596;28;20246;-74
2021/06/28 02:39:05;;;;;;;10.80;9.40;;;;;;;19.58;100.00;99093.22;5115005;27;20183;-73
2021/06/28 02:41:32;;;;;;;9.77;8.83;;;;;;;19.47;100.00;99088.00;5114217;28;20483;-73
2021/06/28 02:43:59;;;;;;;11.50;10.30;;;;;;;19.34;100.00;99085.66;5091228;28;20505;-73
2021/06/28 02:46:26;;;;;;;12.50;10.40;;;;;;;19.31;100.00;99082.38;5115744;28;20512;-73
2021/06/28 02:48:53;;;;;;;11.27;10.27;;;;;;;19.27;100.00;99087.31;5095455;28;20987;-74
2021/06/28 02:51:21;;;;;;;10.93;9.83;;;;;;;19.22;100.00;99072.41;5101120;28;20956;-74
2021/06/28 02:53:48;;;;;;;13.80;10.17;;;;;;;19.22;100.00;99072.41;5104610;28;20521;-74
2021/06/28 02:56:15;;;;;;;10.40;9.38;;;;;;;19.20;100.00;99068.97;5095524;28;20805;-73
2021/06/28 02:58:45;;;;;;;10.85;9.93;;;;;;;19.41;100.00;99076.84;5102801;28;20187;-73
2021/06/28 03:01:12;;;;;;;11.27;10.17;;;;;;;19.65;100.00;99081.63;5095023;28;20216;-73
2021/06/28 03:03:39;;;;;;;10.33;9.33;;;;;;;19.75;100.00;99085.16;5094665;28;20473;-73
2021/06/28 03:06:05;;;;;;;13.30;9.77;;;;;;;19.70;100.00;99093.84;5106763;28;20440;-73
2021/06/28 03:08:33;;;;;;;9.90;8.98;;;;;;;19.40;100.00;99080.59;5114870;28;20600;-73
2021/06/28 03:11:02;;;;;;;10.18;9.20;;;;;;;19.29;100.00;99093.47;5096932;28;20191;-74
2021/06/28 03:13:29;;;;;;;11.00;10.00;;;;;;;19.38;100.00;99084.34;5099595;28;20199;-73
2021/06/28 03:15:56;;;;;;;10.20;9.20;;;;;;;19.47;100.00;99078.94;5094178;28;20196;-74
2021/06/28 03:18:23;;;;;;;11.10;9.90;;;;;;;19.33;100.00;99081.25;5102656;28;20234;-74
2021/06/28 03:20:49;;;;;;;12.05;10.25;;;;;;;19.37;100.00;99093.53;5102661;28;20287;-72
2021/06/28 03:23:16;;;;;;;10.35;9.45;;;;;;;19.34;100.00;99080.22;5094583;28;20192;-73
2021/06/28 03:25:44;;;;;;;9.93;9.00;;;;;;;19.20;100.00;99086.25;5094687;28;20198;-72
2021/06/28 03:28:11;;;;;;;10.33;9.33;;;;;;;19.22;100.00;99083.34;5086789;28;20218;-73
2021/06/28 03:30:38;;;;;;;11.27;10.10;;;;;;;19.33;100.00;99077.63;5109844;28;20516;-73
2021/06/28 03:33:05;;;;;;;11.05;10.05;;;;;;;19.27;100.00;99075.56;5113467;28;20290;-73
2021/06/28 03:35:32;;;;;;;11.32;10.18;;;;;;;19.17;100.00;99075.63;5107913;28;20199;-73
2021/06/28 03:37:59;;;;;;;10.95;9.85;;;;;;;19.22;100.00;99076.03;5094409;28;20191;-73
2021/06/28 03:40:26;;;;;;;10.63;9.63;;;;;;;19.37;100.00;99081.75;5098830;28;20205;-73
2021/06/28 03:42:54;;;;;;;10.63;9.55;;;;;;;19.44;100.00;99080.13;5096730;28;20641;-74
2021/06/28 03:45:20;;;;;;;11.20;9.63;;;;;;;19.56;100.00;99075.28;5093518;28;20195;-73
2021/06/28 03:47:47;;;;;;;9.82;8.90;;;;;;;19.37;100.00;99074.44;5101831;28;20470;-74
2021/06/28 03:50:14;;;;;;;11.00;9.90;;;;;;;19.38;100.00;99072.56;5113104;28;20205;-73
2021/06/28 03:52:41;;;;;;;9.80;8.80;;;;;;;19.50;100.00;99084.09;5098701;27;20206;-74
2021/06/28 03:55:09;;;;;;;10.00;8.87;;;;;;;19.38;100.00;99088.97;5103691;28;20429;-74
2021/06/28 03:57:36;;;;;;;10.30;9.37;;;;;;;19.49;100.00;99091.44;5103298;28;21232;-75
2021/06/28 04:00:07;;;;;;;10.70;9.70;;;;;;;19.64;100.00;99099.03;5102288;28;20433;-73
2021/06/28 04:02:36;;;;;;;12.00;9.00;;;;;;;19.84;99.58;99094.28;5094186;28;21134;-74
2021/06/28 04:05:04;;;;;;;9.57;8.63;;;;;;;19.82;99.37;99091.69;5093651;28;20509;-74
2021/06/28 04:07:31;;;;;;;12.97;11.63;;;;;;;20.08;96.51;99090.81;5093875;28;20446;-73
2021/06/28 04:09:58;;;;;;;11.50;10.20;;;;;;;20.03;95.87;99094.03;5094012;28;20495;-74
2021/06/28 04:12:25;;;;;;;11.10;10.00;;;;;;;19.83;98.00;99098.88;5093500;28;20430;-73
2021/06/28 04:14:52;;;;;;;9.93;8.97;;;;;;;19.61;99.68;99108.41;5093247;28;20440;-73
2021/06/28 04:17:19;;;;;;;11.03;9.93;;;;;;;19.56;100.00;99119.81;5094181;28;20975;-73
2021/06/28 04:19:46;;;;;;;16.87;9.60;;;;;;;19.69;99.91;99113.94;5094429;28;20421;-74
2021/06/28 04:22:13;;;;;;;9.07;8.27;;;;;;;19.64;100.00;99102.63;5093883;28;20449;-74
2021/06/28 04:24:40;;;;;;;12.00;10.10;;;;;;;19.61;100.00;99116.59;5094198;28;20458;-74
2021/06/28 04:27:07;;;;;;;12.30;10.03;;;;;;;19.67;100.00;99113.25;5094479;28;20505;-74
2021/06/28 04:29:34;;;;;;;9.93;8.90;;;;;;;19.62;100.00;99115.56;5093844;28;20571;-74
2021/06/28 04:32:00;;;;;;;9.43;8.40;;;;;;;19.74;100.00;99117.09;5093988;28;20774;-74
2021/06/28 04:34:28;;;;;;;10.57;9.50;;;;;;;19.86;99.27;99112.22;5093396;28;20460;-73
2021/06/28 04:36:55;;;;;;;9.80;8.80;;;;;;;19.98;97.80;99101.88;5093764;28;20537;-74
2021/06/28 04:39:22;;;;;;;9.73;7.83;;;;;;;20.09;96.34;99108.94;5093799;28;20418;-74
2021/06/28 04:41:48;;;;;;;11.00;9.13;;;;;;;20.40;94.29;99117.47;5093881;28;20520;-74
2021/06/28 04:44:15;;;;;;;9.33;8.07;;;;;;;20.59;92.13;99109.03;5094112;28;20453;-74
2021/06/28 04:46:45;;;;;;;9.60;8.60;;;;;;;20.70;90.42;99109.75;5094149;28;20433;-74
2021/06/28 04:49:11;;;;;;;8.00;7.30;;;;;;;20.74;89.69;99109.25;5093916;28;20549;-74
2021/06/28 04:51:40;;;;;;;8.93;8.03;;;;;;;20.94;87.54;99108.94;5093657;28;20914;-72
2021/06/28 04:54:07;;;;;;;8.17;7.37;;;;;;;21.25;85.89;99114.66;5093599;28;20434;-74
2021/06/28 04:56:33;;;;;;;7.70;7.00;;;;;;;21.39;84.49;99113.13;5093716;28;21001;-74
2021/06/28 04:59:00;;;;;;;11.60;7.17;;;;;;;21.62;82.71;99122.41;5093544;28;20763;-72
2021/06/28 05:01:26;;;;;;;9.90;8.00;;;;;;;21.84;81.00;99123.59;5092333;28;20475;-74
2021/06/28 05:03:53;;;;;;;8.00;7.30;;;;;;;22.03;79.72;99118.78;5093075;28;20470;-74
2021/06/28 05:06:20;;;;;;;7.10;6.50;;;;;;;22.03;79.49;99119.63;5093219;28;20422;-74
2021/06/28 05:08:47;;;;;;;7.83;7.13;;;;;;;22.19;78.38;99137.91;5092760;28;20485;-74
2021/06/28 05:11:14;;;;;;;8.07;7.27;;;;;;;22.16;78.59;99140.13;5092889;28;20923;-74
2021/06/28 05:13:41;;;;;;;8.07;7.27;;;;;;;21.92;79.79;99130.09;5092986;28;20505;-75
2021/06/28 05:16:07;;;;;;;7.90;7.17;;;;;;;21.67;80.84;99132.00;5093520;28;20478;-74
2021/06/28 05:18:34;;;;;;;7.40;6.70;;;;;;;21.70;80.92;99126.16;5099910;28;20529;-74
2021/06/28 05:21:00;;;;;;;7.63;6.90;;;;;;;21.76;80.89;99126.34;5092681;28;20899;-74
2021/06/28 05:23:27;;;;;;;8.50;7.67;;;;;;;21.87;80.16;99122.41;5092960;28;20453;-73
2021/06/28 05:25:56;;;;;;;8.63;7.30;;;;;;;22.21;77.89;99113.06;5092791;28;20440;-74
2021/06/28 05:28:23;;;;;;;9.33;7.33;;;;;;;22.01;78.83;99110.72;5092553;28;20869;-74
2021/06/28 05:30:49;;;;;;;7.83;7.10;;;;;;;21.75;80.10;99107.31;5092069;28;20551;-74
2021/06/28 05:33:16;;;;;;;8.27;6.67;;;;;;;21.85;79.97;99097.91;5092042;28;20807;-72
2021/06/28 05:35:43;;;;;;;8.57;7.37;;;;;;;21.93;80.49;99097.00;5092210;28;20861;-73
2021/06/28 05:38:09;;;;;;;8.43;6.63;;;;;;;22.13;78.69;99089.25;5091912;28;20970;-74
2021/06/28 05:40:36;;;;;;;8.80;8.00;;;;;;;22.24;78.48;99083.44;5092126;28;20468;-74
2021/06/28 05:43:04;;;;;;;8.00;6.97;;;;;;;22.12;78.69;99071.13;5092161;28;20963;-75
2021/06/28 05:45:32;;;;;;;12.77;7.53;;;;;;;22.34;78.23;99064.03;5092446;28;20438;-74
2021/06/28 05:47:58;;;;;;;8.97;8.17;;;;;;;22.48;77.75;99077.00;5092358;28;20869;-74
2021/06/28 05:50:26;;;;;;;9.27;7.63;;;;;;;22.40;78.65;99071.53;5092447;28;20973;-74
2021/06/28 05:52:52;;;;;;;8.63;7.00;;;;;;;22.42;77.66;99065.88;5098249;28;20469;-74
2021/06/28 05:55:19;;;;;;;11.23;10.00;;;;;;;22.07;79.20;99059.84;5112671;28;20460;-74
2021/06/28 05:57:46;;;;;;;11.00;10.03;;;;;;;22.58;77.38;99065.81;5113525;28;20429;-73
2021/06/28 06:00:16;;;;;;;11.23;10.30;;;;;;;22.99;75.18;99071.06;5105328;28;20436;-75
2021/06/28 06:02:42;;;;;;;11.57;10.47;;;;;;;22.93;74.74;99070.91;5092765;28;20462;-73
2021/06/28 06:05:10;;;;;;;10.83;9.83;;;;;;;23.51;72.01;99075.81;5092372;28;20482;-73
2021/06/28 06:07:37;;;;;;;10.17;9.17;;;;;;;23.67;71.44;99073.97;5092278;28;20527;-74
2021/06/28 06:10:04;;;;;;;9.80;8.23;;;;;;;24.03;69.88;99062.28;5093033;28;20985;-74
2021/06/28 06:12:31;;;;;;;8.40;7.70;;;;;;;24.31;68.28;99062.50;5093641;28;20421;-74
2021/06/28 06:14:58;;;;;;;10.10;9.00;;;;;;;23.51;71.16;99061.22;5111930;28;20441;-75
2021/06/28 06:17:26;;;;;;;10.00;9.00;;;;;;;23.75;70.52;99071.19;5116510;28;20739;-74
2021/06/28 06:19:53;;;;;;;10.50;9.60;;;;;;;23.91;69.69;99071.00;5116988;28;20421;-75
2021/06/28 06:22:20;;;;;;;9.40;8.60;;;;;;;23.31;72.14;99072.75;5116688;28;20981;-75
2021/06/28 06:24:46;;;;;;;9.77;8.87;;;;;;;23.23;73.45;99066.47;5115753;28;20569;-75
2021/06/28 06:27:13;;;;;;;10.33;9.13;;;;;;;23.21;73.42;99063.03;5112366;28;20441;-74
2021/06/28 06:29:40;;;;;;;11.00;8.30;;;;;;;23.48;72.51;99061.63;5095610;28;20900;-74
2021/06/28 06:32:07;;;;;;;9.00;8.13;;;;;;;23.59;71.75;99068.56;5095918;28;20474;-75
2021/06/28 06:34:35;;;;;;;8.80;7.90;;;;;;;23.99;70.09;99070.06;5097253;28;20962;-75
2021/06/28 06:37:01;;;;;;;11.07;10.00;;;;;;;23.95;70.10;99074.25;5096084;28;20442;-74
2021/06/28 06:39:29;;;;;;;9.10;8.30;;;;;;;24.24;69.03;99081.66;5097694;28;20418;-74
2021/06/28 06:41:56;;;;;;;10.27;9.27;;;;;;;24.80;66.71;99081.13;5103718;28;20448;-75
2021/06/28 06:44:22;;;;;;;10.00;7.63;;;;;;;24.67;66.78;99087.34;5096046;28;20432;-75
2021/06/28 06:46:49;;;;;;;9.53;7.70;;;;;;;24.47;67.34;99094.47;5095868;28;20430;-74
2021/06/28 06:49:15;;;;;;;8.03;7.23;;;;;;;24.67;66.73;99094.72;5095379;28;20462;-73
2021/06/28 06:51:43;;;;;;;8.73;6.73;;;;;;;24.58;67.53;99110.53;5095217;28;20513;-74
2021/06/28 06:54:10;;;;;;;8.77;7.80;;;;;;;24.34;67.95;99112.47;5095945;28;20919;-74
2021/06/28 06:56:37;;;;;;;7.67;6.97;;;;;;;24.25;68.82;99112.75;5095757;28;20849;-74
2021/06/28 06:59:04;;;;;;;8.57;7.70;;;;;;;24.25;69.02;99119.13;5106233;28;20472;-74
2021/06/28 07:01:32;;;;;;;9.50;6.83;;;;;;;24.27;69.05;99127.19;5115626;28;20831;-74
2021/06/28 07:03:59;;;;;;;8.53;7.73;;;;;;;24.39;68.54;99120.16;5115225;28;20460;-75
2021/06/28 07:06:25;;;;;;;8.30;7.50;;;;;;;24.49;68.24;99131.78;5113185;28;20512;-75
2021/06/28 07:08:53;;;;;;;10.70;9.60;;;;;;;24.45;68.77;99143.31;5115257;28;20544;-75
2021/06/28 07:11:20;;;;;;;8.30;7.50;;;;;;;24.20;70.07;99149.09;5115693;28;20544;-74
2021/06/28 07:13:50;;;;;;;7.73;6.97;;;;;;;24.28;70.17;99162.75;5115353;28;20428;-75
2021/06/28 07:16:17;;;;;;;7.67;6.63;;;;;;;24.20;70.56;99176.59;5101758;28;20466;-75
2021/06/28 07:18:44;;;;;;;9.30;8.30;;;;;;;24.00;71.68;99200.16;5095379;28;20442;-74
2021/06/28 07:21:10;;;;;;;9.20;6.93;;;;;;;23.83;72.54;99213.19;5095014;28;20453;-74
2021/06/28 07:23:37;;;;;;;9.13;8.30;;;;;;;23.73;73.29;99213.41;5095113;28;20902;-74
2021/06/28 07:26:06;;;;;;;8.70;7.80;;;;;;;23.69;74.25;99203.81;5094914;28;20421;-74
2021/06/28 07:28:33;;;;;;;10.10;8.47;;;;;;;23.77;75.21;99220.28;5074810;28;20415;-74
2021/06/28 07:31:01;;;;;;;7.73;7.03;;;;;;;23.90;75.71;99220.53;5074253;28;20501;-74
2021/06/28 07:33:29;;;;;;;8.10;7.40;;;;;;;24.10;76.39;99242.84;5074615;28;20423;-75
2021/06/28 07:35:58;;;;;;;7.80;7.00;;;;;;;24.31;75.95;99236.66;5076148;28;20526;-75
2021/06/28 07:38:27;;;;;;;7.87;6.90;;;;;;;24.58;74.48;99239.88;5095120;28;20438;-74
2021/06/28 07:40:53;;;;;;;10.90;9.90;;;;;;;24.62;75.71;99246.69;5094791;28;20471;-74
2021/06/28 07:43:21;;;;;;;8.53;7.73;;;;;;;24.52;75.04;99240.63;5094231;28;20426;-74
2021/06/28 07:45:48;;;;;;;8.00;7.20;;;;;;;24.36;76.00;99252.59;5094783;28;20511;-74
2021/06/28 07:48:15;;;;;;;7.43;6.73;;;;;;;24.18;76.39;99230.94;5094601;28;20422;-75
2021/06/28 07:50:43;;;;;;;9.50;6.90;;;;;;;24.24;75.67;99226.56;5094499;28;20558;-75
2021/06/28 07:53:09;;;;;;;7.80;7.13;;;;;;;24.63;73.97;99228.28;5094615;28;20473;-75
2021/06/28 07:55:36;;;;;;;8.03;7.20;;;;;;;24.78;72.32;99231.88;5094705;28;20469;-74
2021/06/28 07:58:05;;;;;;;7.70;6.93;;;;;;;24.96;71.70;99237.00;5094414;28;20422;-75
2021/06/28 08:00:33;;;;;;;8.97;7.33;;;;;;;25.01;70.75;99223.53;5094161;28;20532;-76
2021/06/28 08:03:00;;;;;;;7.43;6.73;;;;;;;25.09;70.68;99220.66;5094664;28;20418;-74
2021/06/28 08:05:27;;;;;;;6.53;5.93;;;;;;;25.20;68.67;99224.88;5093592;28;20473;-74
2021/06/28 08:07:54;;;;;;;9.40;6.67;;;;;;;25.40;69.34;99227.00;5093896;28;20902;-74
2021/06/28 08:10:22;;;;;;;8.83;6.33;;;;;;;25.58;68.78;99238.47;5094156;28;20572;-74
2021/06/28 08:12:49;;;;;;;7.90;7.20;;;;;;;25.61;68.24;99224.28;5094986;28;20521;-74
2021/06/28 08:15:19;;;;;;;8.03;6.90;;;;;;;25.65;68.81;99219.25;5093554;28;21174;-73
2021/06/28 08:17:47;;;;;;;8.47;7.67;;;;;;;26.01;67.46;99216.44;5094246;28;20430;-74
2021/06/28 08:20:15;;;;;;;7.77;7.17;;;;;;;26.58;65.04;99220.94;5093775;28;20530;-74
2021/06/28 08:22:43;;;;;;;7.50;6.40;;;;;;;26.70;63.39;99210.19;5095452;28;20828;-73
2021/06/28 08:25:12;;;;;;;7.60;6.80;;;;;;;27.36;59.64;99208.81;5093802;28;20520;-73
2021/06/28 08:27:38;;;;;;;9.33;6.13;;;;;;;27.19;59.27;99205.56;5093909;28;20430;-74
2021/06/28 08:30:08;;;;;;;7.80;5.83;;;;;;;27.62;58.24;99200.63;5093607;28;20828;-74
2021/06/28 08:32:35;;;;;;;6.13;5.53;;;;;;;27.09;60.23;99199.56;5095281;28;20495;-73
2021/06/28 08:35:04;;;;;;;7.20;6.50;;;;;;;26.06;61.60;99202.06;5114092;28;20844;-73
2021/06/28 08:37:31;;;;;;;6.10;5.50;;;;;;;26.09;61.92;99188.69;5113081;28;20429;-73
2021/06/28 08:39:58;;;;;;;6.43;5.83;;;;;;;26.59;60.76;99191.44;5113169;28;20429;-74
2021/06/28 08:42:24;;;;;;;6.80;6.20;;;;;;;26.94;59.88;99183.97;5113552;28;20465;-73
2021/06/28 08:44:51;;;;;;;6.97;6.27;;;;;;;27.19;58.89;99177.94;5113682;28;20429;-75
2021/06/28 08:47:19;;;;;;;8.00;7.20;;;;;;;26.81;60.32;99184.75;5111850;28;20496;-73
2021/06/28 08:49:45;;;;;;;6.83;5.23;;;;;;;26.71;59.75;99184.28;5113820;28;20467;-75
2021/06/28 08:52:14;;;;;;;6.00;5.40;;;;;;;26.91;58.19;99180.75;5113072;28;20448;-74
2021/06/28 08:54:40;;;;;;;5.00;4.60;;;;;;;26.10;60.18;99184.91;5113834;28;20427;-73
2021/06/28 08:57:07;;;;;;;6.63;5.93;;;;;;;25.63;61.66;99179.97;5096609;28;20453;-74
2021/06/28 08:59:34;;;;;;;5.20;4.80;;;;;;;25.95;61.48;99184.13;5099764;28;20429;-73
2021/06/28 09:02:02;;;;;;;5.30;4.80;;;;;;;26.24;60.11;99182.25;5112829;28;20441;-74
2021/06/28 09:04:29;;;;;;;5.50;5.00;;;;;;;26.39;58.82;99183.84;5113162;28;20963;-72
2021/06/28 09:07:18;;;;;;;6.83;4.80;;;;;;;26.82;57.61;99174.59;5113497;28;20538;-74
2021/06/28 09:09:45;;;;;;;4.17;3.87;;;;;;;27.01;55.45;99175.72;5113397;28;20498;-74
2021/06/28 09:12:14;;;;;;;5.97;4.60;;;;;;;27.40;54.48;99163.97;5113219;28;20547;-74
2021/06/28 09:14:46;;;;;;;5.63;4.80;;;;;;;27.51;53.85;99175.50;5096895;28;20441;-74
2021/06/28 09:17:27;;;;;;;6.93;5.20;;;;;;;27.88;53.37;99179.59;5093187;28;20510;-74
2021/06/28 09:20:16;;;;;;;4.67;4.27;;;;;;;28.09;52.12;99175.81;5093448;28;20437;-73
2021/06/28 09:22:47;;;;;;;4.60;4.23;;;;;;;27.12;54.09;99172.38;5100235;28;20453;-73
2021/06/28 09:25:30;;;;;;;5.53;4.97;;;;;;;27.15;55.00;99168.34;5112998;28;20493;-74
2021/06/28 09:27:56;;;;;;;4.80;4.30;;;;;;;26.86;55.43;99173.09;5111788;28;20476;-73
2021/06/28 09:30:23;;;;;;;5.43;4.83;;;;;;;27.12;54.95;99177.06;5113853;28;21023;-73
2021/06/28 09:32:56;;;;;;;4.87;4.47;;;;;;;27.61;53.14;99176.81;5113156;28;20437;-73
2021/06/28 09:35:33;;;;;;;4.50;4.20;;;;;;;27.51;53.12;99175.50;5113244;28;20536;-74
2021/06/28 09:38:05;;;;;;;5.07;4.67;;;;;;;27.49;53.23;99180.38;5092836;28;20450;-76
2021/06/28 09:40:32;;;;;;;4.60;4.13;;;;;;;27.03;54.89;99174.47;5092653;28;20424;-75
2021/06/28 09:42:59;;;;;;;5.63;4.23;;;;;;;27.61;53.11;99168.50;5092784;28;20433;-73
2021/06/28 09:45:28;;;;;;;4.83;4.43;;;;;;;27.82;52.60;99161.09;5092519;28;20430;-74
2021/06/28 09:47:55;;;;;;;4.40;4.10;;;;;;;28.31;50.69;99162.56;5094345;28;20445;-74
2021/06/28 09:50:24;;;;;;;4.30;3.90;;;;;;;28.17;49.32;99158.97;5096896;28;20577;-73
2021/06/28 09:52:52;;;;;;;5.03;4.47;;;;;;;28.14;50.29;99156.66;5098028;28;20438;-74
2021/06/28 09:55:22;;;;;;;4.80;4.30;;;;;;;28.14;50.94;99161.34;5096910;28;20453;-73
2021/06/28 09:58:10;;;;;;;5.17;4.60;;;;;;;27.08;54.47;99156.41;5096913;28;20825;-75
2021/06/28 10:00:39;;;;;;;5.30;4.47;;;;;;;27.01;55.05;99157.22;5097767;28;20891;-74
2021/06/28 10:03:06;;;;;;;5.63;4.47;;;;;;;26.38;55.75;99167.47;5096579;28;20446;-74
2021/06/28 10:05:37;;;;;;;4.83;4.43;;;;;;;26.12;56.49;99159.88;5096558;28;20835;-73
2021/06/28 10:08:14;;;;;;;5.07;4.40;;;;;;;26.49;55.42;99168.84;5096303;28;20466;-75
2021/06/28 10:10:43;;;;;;;4.70;4.30;;;;;;;26.38;56.30;99168.31;5096555;28;20508;-73
2021/06/28 10:13:10;;;;;;;5.10;4.70;;;;;;;26.61;56.01;99172.75;5096280;28;20443;-74
2021/06/28 10:15:41;;;;;;;5.93;5.13;;;;;;;26.91;54.88;99166.97;5096250;28;20487;-74
2021/06/28 10:18:09;;;;;;;5.63;5.13;;;;;;;27.70;52.92;99171.06;5096825;28;21183;-74
2021/06/28 10:20:38;;;;;;;4.70;4.30;;;;;;;27.23;52.30;99166.28;5096263;28;20507;-74
2021/06/28 10:23:06;;;;;;;4.90;4.50;;;;;;;27.47;52.54;99164.00;5095693;28;20437;-74
2021/06/28 10:25:34;;;;;;;4.60;4.20;;;;;;;27.41;52.44;99159.31;5095765;28;20476;-75
2021/06/28 10:28:04;;;;;;;4.33;3.93;;;;;;;27.65;51.68;99163.38;5096179;28;20517;-74
2021/06/28 10:30:31;;;;;;;16.33;5.00;;;;;;;28.25;50.41;99160.69;5104692;28;20488;-74
2021/06/28 10:33:02;;;;;;;4.80;4.30;;;;;;;28.33;50.64;99163.22;5116729;28;20524;-74
2021/06/28 10:35:32;;;;;;;4.57;4.17;;;;;;;28.28;48.45;99161.09;5115775;28;20475;-74
2021/06/28 10:38:03;;;;;;;4.37;4.00;;;;;;;28.36;48.56;99164.72;5116074;28;20426;-74
2021/06/28 10:40:46;;;;;;;5.10;4.60;;;;;;;27.26;52.35;99150.34;5116431;28;20422;-74
2021/06/28 10:43:33;;;;;;;5.37;4.87;;;;;;;27.66;52.16;99154.06;5115790;28;20421;-72
2021/06/28 10:46:00;;;;;;;4.70;4.30;;;;;;;28.22;51.11;99150.03;5116139;27;20467;-74
2021/06/28 10:48:29;;;;;;;7.50;6.80;;;;;;;28.62;50.23;99156.38;5111411;28;20530;-74
2021/06/28 10:51:00;;;;;;;4.40;4.07;;;;;;;28.80;49.96;99150.13;5099143;28;20461;-73
2021/06/28 10:54:11;;;;;;;4.50;4.20;;;;;;;28.75;49.85;99154.66;5094661;28;20426;-73
2021/06/28 10:56:46;;;;;;;8.53;4.87;;;;;;;28.67;50.10;99153.81;5102504;28;20796;-74
2021/06/28 10:59:35;;;;;;;9.30;7.83;;;;;;;28.43;51.16;99158.09;5099322;28;20498;-74
2021/06/28 11:02:08;;;;;;;6.63;5.20;;;;;;;28.36;51.64;99156.41;5096728;28;20837;-75
2021/06/28 11:04:37;;;;;;;6.00;4.63;;;;;;;28.50;50.87;99160.88;5108992;28;20553;-74
2021/06/28 11:07:18;;;;;;;4.87;4.47;;;;;;;28.75;49.55;99158.25;5116448;28;20463;-73
2021/06/28 11:09:50;;;;;;;4.53;4.23;;;;;;;28.70;49.43;99169.16;5116124;28;20441;-75
2021/06/28 11:12:38;;;;;;;5.90;4.93;;;;;;;28.68;48.81;99166.59;5114982;27;20504;-74
2021/06/28 11:15:26;;;;;;;4.73;4.33;;;;;;;28.45;49.01;99164.28;5112217;28;20472;-74
2021/06/28 11:17:54;;;;;;;4.27;3.90;;;;;;;28.38;49.50;99165.34;5102207;28;20484;-74
2021/06/28 11:20:25;;;;;;;4.70;4.30;;;;;;;28.45;49.82;99172.56;5095969;28;20466;-74
2021/06/28 11:23:00;;;;;;;4.57;4.13;;;;;;;28.53;49.71;99173.44;5093794;28;21237;-74
2021/06/28 11:25:28;;;;;;;4.77;4.47;;;;;;;28.67;49.66;99164.91;5094327;28;20450;-74
2021/06/28 11:28:22;;;;;;;4.47;4.10;;;;;;;28.52;50.38;99171.75;5093878;28;20422;-74
2021/06/28 11:30:53;;;;;;;4.40;4.10;;;;;;;28.76;50.56;99178.50;5098174;28;20466;-73
2021/06/28 11:33:39;;;;;;;5.03;4.63;;;;;;;28.93;50.01;99168.66;5093856;28;20466;-74